Pagrindinis puslapis
METAR-TAF:

METAR-TAF

Oro uostai :

Bintulu, Malaizija

platuma: 03-12N, ilguma: 113-02E, Aukštis: 2 m

Dabartinis oras

Ataskaita buvo paskelbta 32 minutes, ne 20:00 UTC
Vėjas 2 kt nuo kintamojo kryptimis
Temperatūra 26°C
Drėgmė 100%
Slėgis 1009 hPa
Matomumas: 3000 m
Mažai debesys ne aukštis 500 ft
Išsisklaidę debesys ne aukštis 1600 ft
Su prošvaistėmis ne aukštis 15000 ft
migla

METAR: WBGB 202000Z VRB02KT 3000 HZ FEW005 SCT016 BKN150 26/26 Q1009

Laikas: 04:32 (20:32 UTC)

Prognozė

Ataskaita buvo paskelbta 3 valandos ir 32 minutes, ne 17:00 UTC
Prognozė galioja nuo 20 metu 18 UTC su 21 metu 18 UTC
Vėjas 3 kt iš Šiaurės
Matomumas: 3000 m
Mažai debesys ne aukštis 1600 ft
migla
Laikinai
nuo 20 metu 20 UTC su 21 metu 00 UTC
Matomumas: 3000 m
Mažai debesys ne aukštis 1500 ft, Liūtiniai kamuoliniai debesys.
lietus

TAF: WBGB 201700Z 2018/2118 01003KT 3000 HZ FEW016 TEMPO 2020/2100 3000 RA FEW015CB

Orai ataskaitas ir orų prognozės (METAR, TAF).

turimą stotys yra geltonos ir raudonos taškus žemėlapyje.

Perkelti pele per norėdami pamatyti stoties vardą.

Tada spustelėkite, norėdami matyti oro stebėjimo ir prognozės.

Norėdami pakeisti žemėlapį: spustelėkite ant žalios mygtukų su juodo kryžiaus žemyn,; žalią mygtuką su brūkšneliu, jei norite nutolinti; arba žalių rodyklių gretimoms žemėlapius.


METAR-TAF: